sensor_id;sensor_type;location;lat;lon;timestamp;pressure;altitude;pressure_sealevel;temperature
34125;BMP280;20110;53.120;5.786;2022-08-23T00:02:02;101559.78;;;21.45
34125;BMP280;20110;53.120;5.786;2022-08-23T00:04:41;101575.41;;;21.56
34125;BMP280;20110;53.120;5.786;2022-08-23T00:07:11;101572.56;;;21.54
34125;BMP280;20110;53.120;5.786;2022-08-23T00:09:37;101556.09;;;21.50
34125;BMP280;20110;53.120;5.786;2022-08-23T00:12:15;101568.19;;;21.49
34125;BMP280;20110;53.120;5.786;2022-08-23T00:14:51;101573.84;;;21.53
34125;BMP280;20110;53.120;5.786;2022-08-23T00:17:18;101534.50;;;21.31
34125;BMP280;20110;53.120;5.786;2022-08-23T00:19:44;101545.41;;;21.33
34125;BMP280;20110;53.120;5.786;2022-08-23T00:22:11;101543.03;;;21.27
34125;BMP280;20110;53.120;5.786;2022-08-23T00:24:38;101550.00;;;21.30
34125;BMP280;20110;53.120;5.786;2022-08-23T00:32:23;101562.78;;;21.40
34125;BMP280;20110;53.120;5.786;2022-08-23T00:34:50;101564.47;;;21.45
34125;BMP280;20110;53.120;5.786;2022-08-23T00:37:16;101538.91;;;21.36
34125;BMP280;20110;53.120;5.786;2022-08-23T00:39:45;101536.03;;;21.34
34125;BMP280;20110;53.120;5.786;2022-08-23T00:45:24;101534.59;;;21.52
34125;BMP280;20110;53.120;5.786;2022-08-23T00:48:11;101543.28;;;21.60
34125;BMP280;20110;53.120;5.786;2022-08-23T00:50:56;101547.97;;;21.60
34125;BMP280;20110;53.120;5.786;2022-08-23T00:53:40;101547.41;;;21.61
34125;BMP280;20110;53.120;5.786;2022-08-23T00:56:11;101532.16;;;21.56
34125;BMP280;20110;53.120;5.786;2022-08-23T00:58:38;101536.28;;;21.57
34125;BMP280;20110;53.120;5.786;2022-08-23T01:01:05;101542.41;;;21.58
34125;BMP280;20110;53.120;5.786;2022-08-23T01:03:38;101540.84;;;21.55
34125;BMP280;20110;53.120;5.786;2022-08-23T01:06:23;101541.31;;;21.51
34125;BMP280;20110;53.120;5.786;2022-08-23T01:08:59;101551.41;;;21.51
34125;BMP280;20110;53.120;5.786;2022-08-23T01:11:36;101529.94;;;21.43
34125;BMP280;20110;53.120;5.786;2022-08-23T01:14:14;101542.13;;;21.44
34125;BMP280;20110;53.120;5.786;2022-08-23T01:16:55;101519.97;;;21.26
34125;BMP280;20110;53.120;5.786;2022-08-23T01:19:45;101546.28;;;21.35
34125;BMP280;20110;53.120;5.786;2022-08-23T01:25:44;101533.06;;;21.30
34125;BMP280;20110;53.120;5.786;2022-08-23T01:28:10;101551.25;;;21.29
34125;BMP280;20110;53.120;5.786;2022-08-23T01:30:36;101547.00;;;21.26
34125;BMP280;20110;53.120;5.786;2022-08-23T01:33:06;101556.25;;;21.23
34125;BMP280;20110;53.120;5.786;2022-08-23T01:35:43;101534.25;;;21.17
34125;BMP280;20110;53.120;5.786;2022-08-23T01:38:11;101542.88;;;21.25
34125;BMP280;20110;53.120;5.786;2022-08-23T01:40:39;101544.88;;;21.25
34125;BMP280;20110;53.120;5.786;2022-08-23T01:43:06;101542.47;;;21.29
34125;BMP280;20110;53.120;5.786;2022-08-23T01:45:33;101535.06;;;21.29
34125;BMP280;20110;53.120;5.786;2022-08-23T01:47:59;101512.75;;;21.19
34125;BMP280;20110;53.120;5.786;2022-08-23T01:50:26;101499.38;;;21.12
34125;BMP280;20110;53.120;5.786;2022-08-23T01:52:52;101542.84;;;21.45
34125;BMP280;20110;53.120;5.786;2022-08-23T01:55:18;101530.38;;;21.40
34125;BMP280;20110;53.120;5.786;2022-08-23T01:57:49;101507.34;;;21.29
34125;BMP280;20110;53.120;5.786;2022-08-23T02:00:20;101532.31;;;21.49
34125;BMP280;20110;53.120;5.786;2022-08-23T02:02:45;101526.91;;;21.49
34125;BMP280;20110;53.120;5.786;2022-08-23T02:05:12;101529.34;;;21.45
34125;BMP280;20110;53.120;5.786;2022-08-23T02:07:37;101487.31;;;21.13
34125;BMP280;20110;53.120;5.786;2022-08-23T02:10:06;101540.16;;;21.45
34125;BMP280;20110;53.120;5.786;2022-08-23T02:12:32;101522.25;;;21.40
34125;BMP280;20110;53.120;5.786;2022-08-23T02:14:58;101535.44;;;21.45
34125;BMP280;20110;53.120;5.786;2022-08-23T02:17:24;101535.19;;;21.41
34125;BMP280;20110;53.120;5.786;2022-08-23T02:19:49;101524.25;;;21.39
34125;BMP280;20110;53.120;5.786;2022-08-23T02:22:15;101523.81;;;21.43
34125;BMP280;20110;53.120;5.786;2022-08-23T02:24:44;101545.25;;;21.60
34125;BMP280;20110;53.120;5.786;2022-08-23T02:27:12;101488.00;;;21.32
34125;BMP280;20110;53.120;5.786;2022-08-23T02:29:41;101514.63;;;21.67
34125;BMP280;20110;53.120;5.786;2022-08-23T02:32:10;101532.09;;;21.85
34125;BMP280;20110;53.120;5.786;2022-08-23T02:34:36;101522.94;;;21.90
34125;BMP280;20110;53.120;5.786;2022-08-23T02:37:04;101498.25;;;21.74
34125;BMP280;20110;53.120;5.786;2022-08-23T02:39:30;101498.41;;;21.76
34125;BMP280;20110;53.120;5.786;2022-08-23T02:41:56;101519.16;;;21.84
34125;BMP280;20110;53.120;5.786;2022-08-23T02:44:22;101524.13;;;21.77
34125;BMP280;20110;53.120;5.786;2022-08-23T02:46:49;101515.38;;;21.58
34125;BMP280;20110;53.120;5.786;2022-08-23T02:49:15;101520.78;;;21.48
34125;BMP280;20110;53.120;5.786;2022-08-23T02:51:41;101515.13;;;21.34
34125;BMP280;20110;53.120;5.786;2022-08-23T02:54:08;101533.78;;;21.40
34125;BMP280;20110;53.120;5.786;2022-08-23T02:56:34;101507.03;;;21.15
34125;BMP280;20110;53.120;5.786;2022-08-23T02:59:02;101526.50;;;21.33
34125;BMP280;20110;53.120;5.786;2022-08-23T03:01:34;101517.88;;;21.25
34125;BMP280;20110;53.120;5.786;2022-08-23T03:04:01;101517.56;;;21.30
34125;BMP280;20110;53.120;5.786;2022-08-23T03:06:28;101522.81;;;21.38
34125;BMP280;20110;53.120;5.786;2022-08-23T03:08:55;101527.94;;;21.44
34125;BMP280;20110;53.120;5.786;2022-08-23T03:11:23;101535.75;;;21.49
34125;BMP280;20110;53.120;5.786;2022-08-23T03:13:51;101502.78;;;21.31
34125;BMP280;20110;53.120;5.786;2022-08-23T03:16:19;101513.13;;;21.54
34125;BMP280;20110;53.120;5.786;2022-08-23T03:18:45;101521.34;;;21.56
34125;BMP280;20110;53.120;5.786;2022-08-23T03:21:13;101528.47;;;21.61
34125;BMP280;20110;53.120;5.786;2022-08-23T03:23:39;101506.88;;;21.42
34125;BMP280;20110;53.120;5.786;2022-08-23T03:26:09;101528.31;;;21.59
34125;BMP280;20110;53.120;5.786;2022-08-23T03:28:37;101534.59;;;21.62
34125;BMP280;20110;53.120;5.786;2022-08-23T03:31:03;101499.34;;;21.41
34125;BMP280;20110;53.120;5.786;2022-08-23T03:33:29;101514.44;;;21.44
34125;BMP280;20110;53.120;5.786;2022-08-23T03:36:00;101533.44;;;21.55
34125;BMP280;20110;53.120;5.786;2022-08-23T03:38:27;101514.16;;;21.40
34125;BMP280;20110;53.120;5.786;2022-08-23T03:40:53;101540.84;;;21.55
34125;BMP280;20110;53.120;5.786;2022-08-23T03:43:20;101530.63;;;21.53
34125;BMP280;20110;53.120;5.786;2022-08-23T03:45:46;101520.28;;;21.40
34125;BMP280;20110;53.120;5.786;2022-08-23T03:48:11;101512.44;;;21.34
34125;BMP280;20110;53.120;5.786;2022-08-23T03:50:37;101511.59;;;21.32
34125;BMP280;20110;53.120;5.786;2022-08-23T03:53:04;101528.63;;;21.44
34125;BMP280;20110;53.120;5.786;2022-08-23T03:55:31;101505.75;;;21.26
34125;BMP280;20110;53.120;5.786;2022-08-23T03:57:57;101508.06;;;21.20
34125;BMP280;20110;53.120;5.786;2022-08-23T04:00:22;101529.06;;;21.41
34125;BMP280;20110;53.120;5.786;2022-08-23T04:02:48;101518.66;;;21.37
34125;BMP280;20110;53.120;5.786;2022-08-23T04:05:14;101505.47;;;21.22
34125;BMP280;20110;53.120;5.786;2022-08-23T04:07:40;101529.22;;;21.43
34125;BMP280;20110;53.120;5.786;2022-08-23T04:10:08;101526.78;;;21.37
34125;BMP280;20110;53.120;5.786;2022-08-23T04:12:35;101517.59;;;21.21
34125;BMP280;20110;53.120;5.786;2022-08-23T04:15:01;101512.75;;;21.10
34125;BMP280;20110;53.120;5.786;2022-08-23T04:17:28;101554.81;;;21.32
34125;BMP280;20110;53.120;5.786;2022-08-23T04:19:54;101550.97;;;21.35
34125;BMP280;20110;53.120;5.786;2022-08-23T04:22:20;101549.41;;;21.42
34125;BMP280;20110;53.120;5.786;2022-08-23T04:24:47;101552.25;;;21.44
34125;BMP280;20110;53.120;5.786;2022-08-23T04:27:13;101548.56;;;21.39
34125;BMP280;20110;53.120;5.786;2022-08-23T04:29:39;101553.81;;;21.47
34125;BMP280;20110;53.120;5.786;2022-08-23T04:32:09;101554.53;;;21.47
34125;BMP280;20110;53.120;5.786;2022-08-23T04:34:37;101551.66;;;21.45
34125;BMP280;20110;53.120;5.786;2022-08-23T04:37:05;101560.34;;;21.53
34125;BMP280;20110;53.120;5.786;2022-08-23T04:39:31;101513.16;;;21.25
34125;BMP280;20110;53.120;5.786;2022-08-23T04:42:17;101534.19;;;21.46
34125;BMP280;20110;53.120;5.786;2022-08-23T04:44:43;101559.47;;;21.60
34125;BMP280;20110;53.120;5.786;2022-08-23T04:47:08;101563.63;;;21.61
34125;BMP280;20110;53.120;5.786;2022-08-23T04:49:34;101534.94;;;21.27
34125;BMP280;20110;53.120;5.786;2022-08-23T04:52:00;101559.50;;;21.22
34125;BMP280;20110;53.120;5.786;2022-08-23T04:54:26;101539.75;;;20.90
34125;BMP280;20110;53.120;5.786;2022-08-23T04:56:54;101555.25;;;20.80
34125;BMP280;20110;53.120;5.786;2022-08-23T04:59:21;101552.25;;;20.76
34125;BMP280;20110;53.120;5.786;2022-08-23T05:01:47;101554.38;;;20.78
34125;BMP280;20110;53.120;5.786;2022-08-23T05:04:13;101550.28;;;20.77
34125;BMP280;20110;53.120;5.786;2022-08-23T05:06:40;101542.19;;;20.77
34125;BMP280;20110;53.120;5.786;2022-08-23T05:09:05;101528.81;;;20.69
34125;BMP280;20110;53.120;5.786;2022-08-23T05:11:31;101566.63;;;21.08
34125;BMP280;20110;53.120;5.786;2022-08-23T05:13:57;101569.88;;;21.16
34125;BMP280;20110;53.120;5.786;2022-08-23T05:16:23;101580.53;;;21.33
34125;BMP280;20110;53.120;5.786;2022-08-23T05:18:50;101546.72;;;21.32
34125;BMP280;20110;53.120;5.786;2022-08-23T05:21:20;101518.88;;;21.20
34125;BMP280;20110;53.120;5.786;2022-08-23T05:23:47;101556.94;;;21.53
34125;BMP280;20110;53.120;5.786;2022-08-23T05:26:13;101547.41;;;21.52
34125;BMP280;20110;53.120;5.786;2022-08-23T05:28:46;101569.97;;;21.75
34125;BMP280;20110;53.120;5.786;2022-08-23T05:31:21;101553.47;;;21.71
34125;BMP280;20110;53.120;5.786;2022-08-23T05:33:47;101574.25;;;22.09
34125;BMP280;20110;53.120;5.786;2022-08-23T05:36:16;101535.94;;;21.82
34125;BMP280;20110;53.120;5.786;2022-08-23T05:38:44;101574.69;;;22.06
34125;BMP280;20110;53.120;5.786;2022-08-23T05:41:12;101468.94;;;21.40
34125;BMP280;20110;53.120;5.786;2022-08-23T05:43:38;101583.28;;;22.24
34125;BMP280;20110;53.120;5.786;2022-08-23T05:46:12;101578.88;;;22.28
34125;BMP280;20110;53.120;5.786;2022-08-23T05:48:42;101577.59;;;22.29
34125;BMP280;20110;53.120;5.786;2022-08-23T05:53:43;101595.53;;;22.55
34125;BMP280;20110;53.120;5.786;2022-08-23T05:56:21;101600.75;;;22.63
34125;BMP280;20110;53.120;5.786;2022-08-23T05:58:50;101591.88;;;22.72
34125;BMP280;20110;53.120;5.786;2022-08-23T06:01:18;101601.72;;;22.89
34125;BMP280;20110;53.120;5.786;2022-08-23T06:03:44;101589.19;;;22.93
34125;BMP280;20110;53.120;5.786;2022-08-23T06:06:12;101602.09;;;23.16
34125;BMP280;20110;53.120;5.786;2022-08-23T06:08:39;101574.91;;;23.14
34125;BMP280;20110;53.120;5.786;2022-08-23T06:11:12;101604.06;;;23.48
34125;BMP280;20110;53.120;5.786;2022-08-23T06:13:47;101603.91;;;23.68
34125;BMP280;20110;53.120;5.786;2022-08-23T06:16:17;101602.00;;;23.82
34125;BMP280;20110;53.120;5.786;2022-08-23T06:18:44;101569.09;;;23.76
34125;BMP280;20110;53.120;5.786;2022-08-23T06:21:12;101590.31;;;24.03
34125;BMP280;20110;53.120;5.786;2022-08-23T06:23:39;101600.25;;;24.21
34125;BMP280;20110;53.120;5.786;2022-08-23T06:26:19;101583.97;;;24.21
34125;BMP280;20110;53.120;5.786;2022-08-23T06:28:48;101588.97;;;24.38
34125;BMP280;20110;53.120;5.786;2022-08-23T06:31:15;101602.28;;;24.58
34125;BMP280;20110;53.120;5.786;2022-08-23T06:34:02;101604.97;;;24.69
34125;BMP280;20110;53.120;5.786;2022-08-23T06:36:30;101602.97;;;24.70
34125;BMP280;20110;53.120;5.786;2022-08-23T06:38:56;101546.63;;;24.33
34125;BMP280;20110;53.120;5.786;2022-08-23T06:41:22;101621.47;;;24.85
34125;BMP280;20110;53.120;5.786;2022-08-23T06:43:47;101615.88;;;24.95
34125;BMP280;20110;53.120;5.786;2022-08-23T06:46:20;101621.38;;;25.08
34125;BMP280;20110;53.120;5.786;2022-08-23T06:48:46;101616.91;;;25.27
34125;BMP280;20110;53.120;5.786;2022-08-23T06:51:32;101611.69;;;25.31
34125;BMP280;20110;53.120;5.786;2022-08-23T06:54:04;101617.03;;;25.56
34125;BMP280;20110;53.120;5.786;2022-08-23T06:56:31;101613.56;;;25.67
34125;BMP280;20110;53.120;5.786;2022-08-23T06:58:57;101593.09;;;25.66
34125;BMP280;20110;53.120;5.786;2022-08-23T07:04:27;101600.28;;;26.14
34125;BMP280;20110;53.120;5.786;2022-08-23T07:06:55;101608.09;;;26.35
34125;BMP280;20110;53.120;5.786;2022-08-23T07:09:21;101601.03;;;26.30
34125;BMP280;20110;53.120;5.786;2022-08-23T07:11:48;101598.09;;;26.40
34125;BMP280;20110;53.120;5.786;2022-08-23T07:14:18;101611.56;;;26.51
34125;BMP280;20110;53.120;5.786;2022-08-23T07:16:48;101618.03;;;26.58
34125;BMP280;20110;53.120;5.786;2022-08-23T07:19:17;101615.56;;;26.64
34125;BMP280;20110;53.120;5.786;2022-08-23T07:21:43;101589.09;;;26.51
34125;BMP280;20110;53.120;5.786;2022-08-23T07:24:09;101610.41;;;26.70
34125;BMP280;20110;53.120;5.786;2022-08-23T07:26:36;101615.25;;;26.72
34125;BMP280;20110;53.120;5.786;2022-08-23T07:29:05;101601.94;;;26.64
34125;BMP280;20110;53.120;5.786;2022-08-23T07:31:34;101617.53;;;26.77
34125;BMP280;20110;53.120;5.786;2022-08-23T07:34:03;101593.16;;;26.66
34125;BMP280;20110;53.120;5.786;2022-08-23T07:36:32;101609.66;;;26.83
34125;BMP280;20110;53.120;5.786;2022-08-23T07:38:59;101625.53;;;27.02
34125;BMP280;20110;53.120;5.786;2022-08-23T07:41:28;101591.72;;;26.94
34125;BMP280;20110;53.120;5.786;2022-08-23T07:44:01;101624.56;;;27.27
34125;BMP280;20110;53.120;5.786;2022-08-23T07:46:30;101623.50;;;27.50
34125;BMP280;20110;53.120;5.786;2022-08-23T07:49:02;101610.94;;;27.58
34125;BMP280;20110;53.120;5.786;2022-08-23T07:51:31;101636.66;;;28.02
34125;BMP280;20110;53.120;5.786;2022-08-23T07:54:04;101644.03;;;28.33
34125;BMP280;20110;53.120;5.786;2022-08-23T07:56:31;101634.81;;;28.60
34125;BMP280;20110;53.120;5.786;2022-08-23T07:58:57;101591.25;;;28.46
34125;BMP280;20110;53.120;5.786;2022-08-23T08:01:26;101630.22;;;28.82
34125;BMP280;20110;53.120;5.786;2022-08-23T08:03:56;101632.19;;;28.99
34125;BMP280;20110;53.120;5.786;2022-08-23T08:06:37;101641.28;;;29.24
34125;BMP280;20110;53.120;5.786;2022-08-23T08:09:04;101647.44;;;29.44
34125;BMP280;20110;53.120;5.786;2022-08-23T08:11:33;101662.75;;;29.51
34125;BMP280;20110;53.120;5.786;2022-08-23T08:14:04;101626.69;;;29.37
34125;BMP280;20110;53.120;5.786;2022-08-23T08:16:41;101651.31;;;29.57
34125;BMP280;20110;53.120;5.786;2022-08-23T08:19:11;101650.94;;;29.66
34125;BMP280;20110;53.120;5.786;2022-08-23T08:21:37;101646.66;;;29.81
34125;BMP280;20110;53.120;5.786;2022-08-23T08:24:09;101610.84;;;29.75
34125;BMP280;20110;53.120;5.786;2022-08-23T08:26:37;101646.78;;;30.28
34125;BMP280;20110;53.120;5.786;2022-08-23T08:29:05;101656.03;;;30.86
34125;BMP280;20110;53.120;5.786;2022-08-23T08:31:31;101663.09;;;31.19
34125;BMP280;20110;53.120;5.786;2022-08-23T08:33:57;101658.94;;;31.42
34125;BMP280;20110;53.120;5.786;2022-08-23T08:36:32;101666.13;;;31.55
34125;BMP280;20110;53.120;5.786;2022-08-23T08:39:02;101648.44;;;31.62
34125;BMP280;20110;53.120;5.786;2022-08-23T08:44:36;101653.97;;;31.92
34125;BMP280;20110;53.120;5.786;2022-08-23T08:47:13;101652.03;;;31.96
34125;BMP280;20110;53.120;5.786;2022-08-23T08:49:53;101649.78;;;31.89
34125;BMP280;20110;53.120;5.786;2022-08-23T08:52:34;101661.94;;;32.10
34125;BMP280;20110;53.120;5.786;2022-08-23T08:57:46;101671.75;;;32.19
34125;BMP280;20110;53.120;5.786;2022-08-23T09:00:27;101675.88;;;32.18
34125;BMP280;20110;53.120;5.786;2022-08-23T09:02:57;101668.03;;;32.06
34125;BMP280;20110;53.120;5.786;2022-08-23T09:05:30;101682.25;;;31.96
34125;BMP280;20110;53.120;5.786;2022-08-23T09:14:54;101687.47;;;32.46
34125;BMP280;20110;53.120;5.786;2022-08-23T09:17:52;101675.88;;;32.49
34125;BMP280;20110;53.120;5.786;2022-08-23T09:20:22;101685.81;;;32.65
34125;BMP280;20110;53.120;5.786;2022-08-23T09:23:06;101685.31;;;32.74
34125;BMP280;20110;53.120;5.786;2022-08-23T09:25:33;101675.75;;;32.77
34125;BMP280;20110;53.120;5.786;2022-08-23T09:27:59;101684.75;;;32.80
34125;BMP280;20110;53.120;5.786;2022-08-23T09:30:51;101671.63;;;32.78
34125;BMP280;20110;53.120;5.786;2022-08-23T09:33:39;101655.84;;;32.81
34125;BMP280;20110;53.120;5.786;2022-08-23T09:36:26;101672.16;;;33.02
34125;BMP280;20110;53.120;5.786;2022-08-23T09:39:00;101652.13;;;33.00
34125;BMP280;20110;53.120;5.786;2022-08-23T09:41:38;101677.78;;;33.12
34125;BMP280;20110;53.120;5.786;2022-08-23T09:44:11;101672.28;;;33.12
34125;BMP280;20110;53.120;5.786;2022-08-23T09:46:41;101661.38;;;33.17
34125;BMP280;20110;53.120;5.786;2022-08-23T09:49:29;101675.91;;;33.21
34125;BMP280;20110;53.120;5.786;2022-08-23T09:51:59;101652.44;;;33.18
34125;BMP280;20110;53.120;5.786;2022-08-23T09:54:34;101661.06;;;33.38
34125;BMP280;20110;53.120;5.786;2022-08-23T09:57:05;101668.78;;;33.46
34125;BMP280;20110;53.120;5.786;2022-08-23T09:59:47;101666.75;;;33.48
34125;BMP280;20110;53.120;5.786;2022-08-23T10:02:25;101664.72;;;33.51
34125;BMP280;20110;53.120;5.786;2022-08-23T10:05:16;101664.22;;;33.64
34125;BMP280;20110;53.120;5.786;2022-08-23T10:07:55;101635.91;;;34.06
34125;BMP280;20110;53.120;5.786;2022-08-23T10:12:55;101629.84;;;35.60
34125;BMP280;20110;53.120;5.786;2022-08-23T10:18:51;101666.94;;;36.95
34125;BMP280;20110;53.120;5.786;2022-08-23T10:27:43;101654.28;;;37.95
34125;BMP280;20110;53.120;5.786;2022-08-23T10:34:57;101667.78;;;38.62
34125;BMP280;20110;53.120;5.786;2022-08-23T10:40:23;101667.34;;;39.14
34125;BMP280;20110;53.120;5.786;2022-08-23T10:43:15;101665.25;;;39.19
34125;BMP280;20110;53.120;5.786;2022-08-23T10:45:52;101652.06;;;39.13
34125;BMP280;20110;53.120;5.786;2022-08-23T10:48:57;101667.69;;;39.49
34125;BMP280;20110;53.120;5.786;2022-08-23T10:51:42;101650.59;;;39.22
34125;BMP280;20110;53.120;5.786;2022-08-23T10:54:15;101659.03;;;39.12
34125;BMP280;20110;53.120;5.786;2022-08-23T10:56:44;101669.19;;;39.38
34125;BMP280;20110;53.120;5.786;2022-08-23T10:59:34;101671.13;;;39.53
34125;BMP280;20110;53.120;5.786;2022-08-23T11:05:22;101671.06;;;40.59
34125;BMP280;20110;53.120;5.786;2022-08-23T11:08:05;101681.22;;;41.16
34125;BMP280;20110;53.120;5.786;2022-08-23T11:10:46;101690.16;;;41.57
34125;BMP280;20110;53.120;5.786;2022-08-23T11:13:21;101673.88;;;41.68
34125;BMP280;20110;53.120;5.786;2022-08-23T11:16:12;101674.50;;;41.37
34125;BMP280;20110;53.120;5.786;2022-08-23T11:18:49;101667.16;;;41.22
34125;BMP280;20110;53.120;5.786;2022-08-23T11:31:44;101676.84;;;41.25
34125;BMP280;20110;53.120;5.786;2022-08-23T11:34:24;101676.50;;;41.43
34125;BMP280;20110;53.120;5.786;2022-08-23T11:40:12;101667.34;;;41.12
34125;BMP280;20110;53.120;5.786;2022-08-23T11:48:23;101688.59;;;41.29
34125;BMP280;20110;53.120;5.786;2022-08-23T11:55:29;101682.78;;;42.36
34125;BMP280;20110;53.120;5.786;2022-08-23T12:03:23;101668.28;;;42.58
34125;BMP280;20110;53.120;5.786;2022-08-23T12:08:50;101679.50;;;41.66
34125;BMP280;20110;53.120;5.786;2022-08-23T12:11:19;101667.66;;;41.98
34125;BMP280;20110;53.120;5.786;2022-08-23T12:13:57;101663.88;;;42.09
34125;BMP280;20110;53.120;5.786;2022-08-23T12:16:27;101677.91;;;42.07
34125;BMP280;20110;53.120;5.786;2022-08-23T12:19:02;101670.25;;;41.75
34125;BMP280;20110;53.120;5.786;2022-08-23T12:24:25;101678.13;;;42.81
34125;BMP280;20110;53.120;5.786;2022-08-23T12:29:58;101669.22;;;41.23
34125;BMP280;20110;53.120;5.786;2022-08-23T12:40:49;101679.34;;;41.39
34125;BMP280;20110;53.120;5.786;2022-08-23T12:43:24;101682.69;;;41.11
34125;BMP280;20110;53.120;5.786;2022-08-23T12:46:00;101653.94;;;40.83
34125;BMP280;20110;53.120;5.786;2022-08-23T12:48:33;101688.09;;;41.21
34125;BMP280;20110;53.120;5.786;2022-08-23T12:51:11;101677.00;;;41.17
34125;BMP280;20110;53.120;5.786;2022-08-23T12:53:42;101682.56;;;41.51
34125;BMP280;20110;53.120;5.786;2022-08-23T12:56:28;101662.16;;;41.63
34125;BMP280;20110;53.120;5.786;2022-08-23T12:59:02;101685.97;;;41.89
34125;BMP280;20110;53.120;5.786;2022-08-23T13:01:33;101668.56;;;41.56
34125;BMP280;20110;53.120;5.786;2022-08-23T13:04:13;101677.06;;;41.82
34125;BMP280;20110;53.120;5.786;2022-08-23T13:06:54;101685.41;;;41.82
34125;BMP280;20110;53.120;5.786;2022-08-23T13:09:46;101682.34;;;41.64
34125;BMP280;20110;53.120;5.786;2022-08-23T13:12:13;101652.31;;;41.66
34125;BMP280;20110;53.120;5.786;2022-08-23T13:17:35;101661.47;;;41.61
34125;BMP280;20110;53.120;5.786;2022-08-23T13:22:35;101639.41;;;41.16
34125;BMP280;20110;53.120;5.786;2022-08-23T13:25:11;101667.69;;;40.94
34125;BMP280;20110;53.120;5.786;2022-08-23T13:27:51;101656.88;;;40.31
34125;BMP280;20110;53.120;5.786;2022-08-23T13:30:34;101666.59;;;39.85
34125;BMP280;20110;53.120;5.786;2022-08-23T13:33:18;101660.75;;;39.46
34125;BMP280;20110;53.120;5.786;2022-08-23T13:35:50;101643.09;;;39.11
34125;BMP280;20110;53.120;5.786;2022-08-23T13:38:27;101668.63;;;39.25
34125;BMP280;20110;53.120;5.786;2022-08-23T13:41:08;101654.22;;;39.11
34125;BMP280;20110;53.120;5.786;2022-08-23T13:43:47;101661.19;;;39.04
34125;BMP280;20110;53.120;5.786;2022-08-23T13:46:22;101646.19;;;38.76
34125;BMP280;20110;53.120;5.786;2022-08-23T13:49:08;101653.22;;;38.59
34125;BMP280;20110;53.120;5.786;2022-08-23T13:52:06;101658.97;;;38.33
34125;BMP280;20110;53.120;5.786;2022-08-23T13:54:34;101658.94;;;38.37
34125;BMP280;20110;53.120;5.786;2022-08-23T13:57:05;101658.22;;;38.43
34125;BMP280;20110;53.120;5.786;2022-08-23T13:59:51;101672.59;;;38.67
34125;BMP280;20110;53.120;5.786;2022-08-23T14:02:20;101671.03;;;38.95
34125;BMP280;20110;53.120;5.786;2022-08-23T14:04:46;101660.53;;;39.01
34125;BMP280;20110;53.120;5.786;2022-08-23T14:07:14;101671.50;;;39.15
34125;BMP280;20110;53.120;5.786;2022-08-23T14:09:40;101657.59;;;39.17
34125;BMP280;20110;53.120;5.786;2022-08-23T14:12:17;101655.03;;;38.97
34125;BMP280;20110;53.120;5.786;2022-08-23T14:14:44;101663.28;;;39.03
34125;BMP280;20110;53.120;5.786;2022-08-23T14:17:12;101654.31;;;38.97
34125;BMP280;20110;53.120;5.786;2022-08-23T14:19:38;101622.66;;;38.65
34125;BMP280;20110;53.120;5.786;2022-08-23T14:22:04;101640.13;;;38.46
34125;BMP280;20110;53.120;5.786;2022-08-23T14:24:31;101638.88;;;38.24
34125;BMP280;20110;53.120;5.786;2022-08-23T14:26:57;101600.91;;;37.95
34125;BMP280;20110;53.120;5.786;2022-08-23T14:29:25;101643.78;;;38.22
34125;BMP280;20110;53.120;5.786;2022-08-23T14:31:57;101641.13;;;38.00
34125;BMP280;20110;53.120;5.786;2022-08-23T14:34:25;101644.69;;;37.72
34125;BMP280;20110;53.120;5.786;2022-08-23T14:36:51;101644.03;;;37.61
34125;BMP280;20110;53.120;5.786;2022-08-23T14:39:19;101628.84;;;37.44
34125;BMP280;20110;53.120;5.786;2022-08-23T14:41:46;101617.78;;;37.26
34125;BMP280;20110;53.120;5.786;2022-08-23T14:44:12;101640.59;;;37.39
34125;BMP280;20110;53.120;5.786;2022-08-23T14:46:39;101621.91;;;37.37
34125;BMP280;20110;53.120;5.786;2022-08-23T14:49:06;101625.38;;;37.32
34125;BMP280;20110;53.120;5.786;2022-08-23T14:51:38;101621.91;;;37.31
34125;BMP280;20110;53.120;5.786;2022-08-23T14:54:10;101625.41;;;37.24
34125;BMP280;20110;53.120;5.786;2022-08-23T14:56:38;101626.75;;;37.31
34125;BMP280;20110;53.120;5.786;2022-08-23T14:59:03;101617.06;;;37.22
34125;BMP280;20110;53.120;5.786;2022-08-23T15:01:31;101634.38;;;37.32
34125;BMP280;20110;53.120;5.786;2022-08-23T15:03:57;101632.28;;;37.39
34125;BMP280;20110;53.120;5.786;2022-08-23T15:06:26;101653.06;;;37.42
34125;BMP280;20110;53.120;5.786;2022-08-23T15:08:52;101642.66;;;37.54
34125;BMP280;20110;53.120;5.786;2022-08-23T15:11:18;101647.50;;;37.62
34125;BMP280;20110;53.120;5.786;2022-08-23T15:13:46;101645.47;;;37.46
34125;BMP280;20110;53.120;5.786;2022-08-23T15:16:15;101646.88;;;37.29
34125;BMP280;20110;53.120;5.786;2022-08-23T15:18:49;101659.31;;;37.36
34125;BMP280;20110;53.120;5.786;2022-08-23T15:21:16;101655.84;;;37.40
34125;BMP280;20110;53.120;5.786;2022-08-23T15:23:43;101657.25;;;37.45
34125;BMP280;20110;53.120;5.786;2022-08-23T15:26:12;101664.16;;;37.40
34125;BMP280;20110;53.120;5.786;2022-08-23T15:28:39;101646.16;;;37.35
34125;BMP280;20110;53.120;5.786;2022-08-23T15:31:05;101642.00;;;37.38
34125;BMP280;20110;53.120;5.786;2022-08-23T15:33:31;101628.19;;;37.24
34125;BMP280;20110;53.120;5.786;2022-08-23T15:35:59;101663.47;;;37.47
34125;BMP280;20110;53.120;5.786;2022-08-23T15:38:30;101675.25;;;37.44
34125;BMP280;20110;53.120;5.786;2022-08-23T15:40:57;101645.44;;;37.48
34125;BMP280;20110;53.120;5.786;2022-08-23T15:43:24;101668.97;;;37.65
34125;BMP280;20110;53.120;5.786;2022-08-23T15:45:50;101659.91;;;37.83
34125;BMP280;20110;53.120;5.786;2022-08-23T15:48:41;101663.97;;;38.02
34125;BMP280;20110;53.120;5.786;2022-08-23T15:51:10;101663.91;;;38.14
34125;BMP280;20110;53.120;5.786;2022-08-23T15:53:37;101667.41;;;38.13
34125;BMP280;20110;53.120;5.786;2022-08-23T15:56:35;101669.56;;;37.98
34125;BMP280;20110;53.120;5.786;2022-08-23T15:58:59;101661.88;;;38.05
34125;BMP280;20110;53.120;5.786;2022-08-23T16:01:27;101629.34;;;37.95
34125;BMP280;20110;53.120;5.786;2022-08-23T16:03:59;101650.09;;;38.04